sensor_id;sensor_type;location;lat;lon;timestamp;pressure;altitude;pressure_sealevel;temperature;humidity
55315;BME280;41619;42.816;23.226;2023-03-31T00:01:31;95491.22;;;6.68;53.44
55315;BME280;41619;42.816;23.226;2023-03-31T00:03:58;95486.25;;;6.70;53.66
55315;BME280;41619;42.816;23.226;2023-03-31T00:06:31;95484.78;;;6.73;54.12
55315;BME280;41619;42.816;23.226;2023-03-31T00:09:05;95487.16;;;6.74;53.60
55315;BME280;41619;42.816;23.226;2023-03-31T00:11:31;95492.25;;;6.76;54.16
55315;BME280;41619;42.816;23.226;2023-03-31T00:13:57;95491.56;;;6.79;54.14
55315;BME280;41619;42.816;23.226;2023-03-31T00:16:23;95496.34;;;6.82;54.06
55315;BME280;41619;42.816;23.226;2023-03-31T00:18:48;95491.00;;;6.85;54.52
55315;BME280;41619;42.816;23.226;2023-03-31T00:21:17;95496.59;;;6.89;53.77
55315;BME280;41619;42.816;23.226;2023-03-31T00:23:57;95493.63;;;6.94;54.44
55315;BME280;41619;42.816;23.226;2023-03-31T00:26:23;95483.63;;;6.98;54.40
55315;BME280;41619;42.816;23.226;2023-03-31T00:28:50;95492.34;;;7.04;54.44
55315;BME280;41619;42.816;23.226;2023-03-31T00:31:16;95493.72;;;7.10;54.23
55315;BME280;41619;42.816;23.226;2023-03-31T00:33:41;95486.47;;;7.14;54.35
55315;BME280;41619;42.816;23.226;2023-03-31T00:36:07;95484.63;;;7.18;54.29
55315;BME280;41619;42.816;23.226;2023-03-31T00:38:33;95486.78;;;7.24;54.00
55315;BME280;41619;42.816;23.226;2023-03-31T00:40:59;95484.97;;;7.28;54.37
55315;BME280;41619;42.816;23.226;2023-03-31T00:43:36;95479.28;;;7.34;54.50
55315;BME280;41619;42.816;23.226;2023-03-31T00:46:04;95471.66;;;7.39;55.10
55315;BME280;41619;42.816;23.226;2023-03-31T00:48:32;95466.31;;;7.43;54.95
55315;BME280;41619;42.816;23.226;2023-03-31T00:51:03;95463.72;;;7.46;54.92
55315;BME280;41619;42.816;23.226;2023-03-31T00:53:30;95470.84;;;7.51;55.10
55315;BME280;41619;42.816;23.226;2023-03-31T00:56:08;95467.09;;;7.55;55.47
55315;BME280;41619;42.816;23.226;2023-03-31T00:58:37;95471.50;;;7.60;55.35
55315;BME280;41619;42.816;23.226;2023-03-31T01:01:09;95463.88;;;7.66;55.47
55315;BME280;41619;42.816;23.226;2023-03-31T01:03:39;95460.13;;;7.70;55.54
55315;BME280;41619;42.816;23.226;2023-03-31T01:06:07;95462.94;;;7.74;55.87
55315;BME280;41619;42.816;23.226;2023-03-31T01:08:35;95457.22;;;7.79;55.75
55315;BME280;41619;42.816;23.226;2023-03-31T01:11:09;95456.56;;;7.82;55.55
55315;BME280;41619;42.816;23.226;2023-03-31T01:13:35;95466.06;;;7.88;55.43
55315;BME280;41619;42.816;23.226;2023-03-31T01:16:02;95466.25;;;7.95;55.05
55315;BME280;41619;42.816;23.226;2023-03-31T01:18:28;95461.00;;;8.02;55.49
55315;BME280;41619;42.816;23.226;2023-03-31T01:46:53;95490.03;;;8.70;52.95
55315;BME280;41619;42.816;23.226;2023-03-31T01:49:36;95487.41;;;8.73;53.29
55315;BME280;41619;42.816;23.226;2023-03-31T01:52:07;95492.19;;;8.76;53.16
55315;BME280;41619;42.816;23.226;2023-03-31T01:54:43;95499.22;;;8.77;53.33
55315;BME280;41619;42.816;23.226;2023-03-31T02:00:29;95504.75;;;8.81;53.53
55315;BME280;41619;42.816;23.226;2023-03-31T02:02:56;95507.84;;;8.79;53.57
55315;BME280;41619;42.816;23.226;2023-03-31T02:05:27;95512.94;;;8.81;53.40
55315;BME280;41619;42.816;23.226;2023-03-31T02:07:58;95509.50;;;8.84;53.34
55315;BME280;41619;42.816;23.226;2023-03-31T02:10:28;95506.50;;;8.89;53.17
55315;BME280;41619;42.816;23.226;2023-03-31T02:12:57;95515.59;;;8.93;52.62
55315;BME280;41619;42.816;23.226;2023-03-31T02:15:25;95520.34;;;8.96;53.19
55315;BME280;41619;42.816;23.226;2023-03-31T02:17:55;95518.47;;;9.00;53.35
55315;BME280;41619;42.816;23.226;2023-03-31T02:20:22;95523.22;;;9.03;54.13
55315;BME280;41619;42.816;23.226;2023-03-31T02:22:52;95526.84;;;9.07;54.96
55315;BME280;41619;42.816;23.226;2023-03-31T02:25:22;95528.06;;;9.10;55.66
55315;BME280;41619;42.816;23.226;2023-03-31T02:27:54;95534.31;;;9.10;55.73
55315;BME280;41619;42.816;23.226;2023-03-31T02:30:24;95537.88;;;9.11;55.92
55315;BME280;41619;42.816;23.226;2023-03-31T02:32:53;95531.94;;;9.09;56.52
55315;BME280;41619;42.816;23.226;2023-03-31T02:35:19;95530.28;;;9.04;56.68
55315;BME280;41619;42.816;23.226;2023-03-31T02:37:45;95530.53;;;8.99;57.25
55315;BME280;41619;42.816;23.226;2023-03-31T02:40:17;95528.88;;;8.95;57.72
55315;BME280;41619;42.816;23.226;2023-03-31T02:42:43;95529.56;;;8.92;58.13
55315;BME280;41619;42.816;23.226;2023-03-31T02:45:38;95518.91;;;8.87;58.80
55315;BME280;41619;42.816;23.226;2023-03-31T02:48:05;95521.91;;;8.82;58.97
55315;BME280;41619;42.816;23.226;2023-03-31T03:09:58;95476.06;;;8.56;61.33
55315;BME280;41619;42.816;23.226;2023-03-31T03:12:39;95462.31;;;8.52;61.40
55315;BME280;41619;42.816;23.226;2023-03-31T03:15:12;95459.16;;;8.50;61.28
55315;BME280;41619;42.816;23.226;2023-03-31T03:17:43;95461.09;;;8.49;62.16
55315;BME280;41619;42.816;23.226;2023-03-31T03:20:10;95464.59;;;8.50;61.54
55315;BME280;41619;42.816;23.226;2023-03-31T03:22:37;95468.47;;;8.49;61.74
55315;BME280;41619;42.816;23.226;2023-03-31T03:25:04;95465.31;;;8.47;62.46
55315;BME280;41619;42.816;23.226;2023-03-31T03:27:30;95464.53;;;8.46;62.39
55315;BME280;41619;42.816;23.226;2023-03-31T03:29:57;95462.16;;;8.45;62.22
55315;BME280;41619;42.816;23.226;2023-03-31T03:32:22;95462.16;;;8.45;62.51
55315;BME280;41619;42.816;23.226;2023-03-31T03:34:47;95468.75;;;8.44;63.06
55315;BME280;41619;42.816;23.226;2023-03-31T03:37:13;95471.81;;;8.42;62.49
55315;BME280;41619;42.816;23.226;2023-03-31T03:39:38;95481.50;;;8.40;63.12
55315;BME280;41619;42.816;23.226;2023-03-31T03:42:04;95470.25;;;8.41;63.32
55315;BME280;41619;42.816;23.226;2023-03-31T03:44:30;95471.38;;;8.40;63.81
55315;BME280;41619;42.816;23.226;2023-03-31T03:46:55;95465.13;;;8.40;63.45
55315;BME280;41619;42.816;23.226;2023-03-31T03:49:21;95458.47;;;8.37;63.69
55315;BME280;41619;42.816;23.226;2023-03-31T03:51:46;95456.41;;;8.34;63.81
55315;BME280;41619;42.816;23.226;2023-03-31T03:54:12;95456.06;;;8.36;63.90
55315;BME280;41619;42.816;23.226;2023-03-31T03:56:37;95464.22;;;8.36;63.91
55315;BME280;41619;42.816;23.226;2023-03-31T03:59:03;95474.34;;;8.35;63.89
55315;BME280;41619;42.816;23.226;2023-03-31T04:01:28;95471.63;;;8.35;63.96
55315;BME280;41619;42.816;23.226;2023-03-31T04:03:54;95481.63;;;8.31;64.28
55315;BME280;41619;42.816;23.226;2023-03-31T04:06:19;95477.31;;;8.30;64.69
55315;BME280;41619;42.816;23.226;2023-03-31T04:08:44;95467.56;;;8.29;64.45
55315;BME280;41619;42.816;23.226;2023-03-31T04:11:14;95471.41;;;8.28;64.54
55315;BME280;41619;42.816;23.226;2023-03-31T04:13:42;95471.78;;;8.27;64.78
55315;BME280;41619;42.816;23.226;2023-03-31T04:16:07;95468.59;;;8.25;64.59
55315;BME280;41619;42.816;23.226;2023-03-31T04:18:32;95470.91;;;8.23;64.37
55315;BME280;41619;42.816;23.226;2023-03-31T04:21:01;95473.63;;;8.23;64.96
55315;BME280;41619;42.816;23.226;2023-03-31T04:23:35;95475.56;;;8.22;64.80
55315;BME280;41619;42.816;23.226;2023-03-31T04:26:11;95473.63;;;8.23;64.88
55315;BME280;41619;42.816;23.226;2023-03-31T04:28:37;95470.91;;;8.23;65.23
55315;BME280;41619;42.816;23.226;2023-03-31T04:31:08;95465.00;;;8.20;65.04
55315;BME280;41619;42.816;23.226;2023-03-31T04:33:34;95463.41;;;8.19;64.89
55315;BME280;41619;42.816;23.226;2023-03-31T04:36:04;95459.09;;;8.18;65.22
55315;BME280;41619;42.816;23.226;2023-03-31T04:38:42;95457.19;;;8.19;65.51
55315;BME280;41619;42.816;23.226;2023-03-31T04:41:11;95457.84;;;8.16;65.53
55315;BME280;41619;42.816;23.226;2023-03-31T04:43:37;95456.63;;;8.13;65.03
55315;BME280;41619;42.816;23.226;2023-03-31T04:46:02;95454.25;;;8.12;64.98
55315;BME280;41619;42.816;23.226;2023-03-31T04:48:27;95455.75;;;8.09;65.39
55315;BME280;41619;42.816;23.226;2023-03-31T04:50:53;95456.53;;;8.10;65.14
55315;BME280;41619;42.816;23.226;2023-03-31T04:53:18;95455.38;;;8.11;65.60
55315;BME280;41619;42.816;23.226;2023-03-31T04:55:43;95454.59;;;8.10;65.18
55315;BME280;41619;42.816;23.226;2023-03-31T04:58:09;95457.31;;;8.10;65.63
55315;BME280;41619;42.816;23.226;2023-03-31T05:00:35;95463.56;;;8.11;65.63
55315;BME280;41619;42.816;23.226;2023-03-31T05:03:00;95460.13;;;8.14;65.84
55315;BME280;41619;42.816;23.226;2023-03-31T05:05:26;95452.75;;;8.14;65.49
55315;BME280;41619;42.816;23.226;2023-03-31T05:07:51;95450.81;;;8.15;66.00
55315;BME280;41619;42.816;23.226;2023-03-31T05:10:17;95452.41;;;8.16;65.58
55315;BME280;41619;42.816;23.226;2023-03-31T05:12:42;95444.66;;;8.18;65.53
55315;BME280;41619;42.816;23.226;2023-03-31T05:15:08;95454.88;;;8.21;65.38
55315;BME280;41619;42.816;23.226;2023-03-31T05:17:34;95447.59;;;8.25;65.87
55315;BME280;41619;42.816;23.226;2023-03-31T05:20:00;95438.69;;;8.28;65.38
55315;BME280;41619;42.816;23.226;2023-03-31T05:22:33;95433.69;;;8.30;65.77
55315;BME280;41619;42.816;23.226;2023-03-31T05:24:58;95431.75;;;8.31;65.73
55315;BME280;41619;42.816;23.226;2023-03-31T05:27:24;95436.53;;;8.34;65.91
55315;BME280;41619;42.816;23.226;2023-03-31T05:29:49;95433.91;;;8.37;65.70
55315;BME280;41619;42.816;23.226;2023-03-31T05:32:15;95444.56;;;8.42;65.82
55315;BME280;41619;42.816;23.226;2023-03-31T05:34:40;95438.03;;;8.47;65.68
55315;BME280;41619;42.816;23.226;2023-03-31T05:37:07;95439.69;;;8.52;65.51
55315;BME280;41619;42.816;23.226;2023-03-31T05:39:33;95437.06;;;8.55;65.17
55315;BME280;41619;42.816;23.226;2023-03-31T05:41:59;95432.94;;;8.61;64.93
55315;BME280;41619;42.816;23.226;2023-03-31T05:44:24;95429.31;;;8.73;64.46
55315;BME280;41619;42.816;23.226;2023-03-31T05:46:52;95440.56;;;8.87;64.58
55315;BME280;41619;42.816;23.226;2023-03-31T05:49:17;95441.63;;;8.98;64.54
55315;BME280;41619;42.816;23.226;2023-03-31T05:51:43;95439.09;;;9.09;63.89
55315;BME280;41619;42.816;23.226;2023-03-31T05:54:08;95435.41;;;9.17;63.09
55315;BME280;41619;42.816;23.226;2023-03-31T05:56:34;95438.28;;;9.24;62.74
55315;BME280;41619;42.816;23.226;2023-03-31T05:58:59;95437.66;;;9.31;62.53
55315;BME280;41619;42.816;23.226;2023-03-31T06:01:26;95446.38;;;9.36;62.40
55315;BME280;41619;42.816;23.226;2023-03-31T06:03:52;95439.81;;;9.41;62.50
55315;BME280;41619;42.816;23.226;2023-03-31T06:06:17;95439.53;;;9.46;61.96
55315;BME280;41619;42.816;23.226;2023-03-31T06:08:45;95444.75;;;9.51;61.91
55315;BME280;41619;42.816;23.226;2023-03-31T06:11:13;95436.25;;;9.56;61.77
55315;BME280;41619;42.816;23.226;2023-03-31T06:13:39;95441.47;;;9.65;61.64
55315;BME280;41619;42.816;23.226;2023-03-31T06:16:06;95434.72;;;9.78;61.38
55315;BME280;41619;42.816;23.226;2023-03-31T06:18:33;95433.88;;;9.93;60.74
55315;BME280;41619;42.816;23.226;2023-03-31T06:20:59;95434.56;;;10.10;60.96
55315;BME280;41619;42.816;23.226;2023-03-31T06:23:25;95432.31;;;10.35;60.13
55315;BME280;41619;42.816;23.226;2023-03-31T06:25:52;95430.59;;;10.72;59.61
55315;BME280;41619;42.816;23.226;2023-03-31T06:28:19;95427.72;;;11.14;58.85
55315;BME280;41619;42.816;23.226;2023-03-31T06:30:44;95425.91;;;11.52;58.29
55315;BME280;41619;42.816;23.226;2023-03-31T06:33:10;95429.06;;;11.84;57.53
55315;BME280;41619;42.816;23.226;2023-03-31T06:35:39;95421.19;;;12.12;56.70
55315;BME280;41619;42.816;23.226;2023-03-31T06:38:06;95429.09;;;12.21;56.41
55315;BME280;41619;42.816;23.226;2023-03-31T06:40:31;95434.63;;;12.25;56.47
55315;BME280;41619;42.816;23.226;2023-03-31T06:42:57;95435.88;;;12.31;56.42
55315;BME280;41619;42.816;23.226;2023-03-31T06:45:22;95431.19;;;12.31;55.92
55315;BME280;41619;42.816;23.226;2023-03-31T06:47:48;95427.63;;;12.27;55.62
55315;BME280;41619;42.816;23.226;2023-03-31T06:50:13;95420.50;;;12.23;55.66
55315;BME280;41619;42.816;23.226;2023-03-31T06:52:38;95416.97;;;12.22;55.37
55315;BME280;41619;42.816;23.226;2023-03-31T06:55:06;95409.50;;;12.23;55.00
55315;BME280;41619;42.816;23.226;2023-03-31T06:57:31;95406.91;;;12.37;55.16
55315;BME280;41619;42.816;23.226;2023-03-31T06:59:58;95387.09;;;12.54;55.01
55315;BME280;41619;42.816;23.226;2023-03-31T07:02:23;95374.28;;;12.72;53.57
55315;BME280;41619;42.816;23.226;2023-03-31T07:04:49;95374.00;;;12.88;53.16
55315;BME280;41619;42.816;23.226;2023-03-31T07:07:14;95370.25;;;13.14;52.65
55315;BME280;41619;42.816;23.226;2023-03-31T07:09:40;95364.56;;;13.44;52.02
55315;BME280;41619;42.816;23.226;2023-03-31T07:12:06;95376.06;;;13.75;51.83
55315;BME280;41619;42.816;23.226;2023-03-31T07:14:31;95381.66;;;13.96;50.70
55315;BME280;41619;42.816;23.226;2023-03-31T07:16:57;95371.09;;;14.16;50.29
55315;BME280;41619;42.816;23.226;2023-03-31T07:19:22;95375.06;;;14.40;50.02
55315;BME280;41619;42.816;23.226;2023-03-31T07:21:48;95369.59;;;14.61;49.87
55315;BME280;41619;42.816;23.226;2023-03-31T07:24:14;95367.63;;;14.97;49.55
55315;BME280;41619;42.816;23.226;2023-03-31T07:26:40;95370.72;;;15.35;49.23
55315;BME280;41619;42.816;23.226;2023-03-31T07:29:05;95363.53;;;15.69;48.59
55315;BME280;41619;42.816;23.226;2023-03-31T07:31:31;95361.41;;;16.05;48.05
55315;BME280;41619;42.816;23.226;2023-03-31T07:33:56;95358.53;;;16.23;47.30
55315;BME280;41619;42.816;23.226;2023-03-31T07:36:22;95354.03;;;16.47;47.21
55315;BME280;41619;42.816;23.226;2023-03-31T07:38:48;95362.19;;;16.69;46.75
55315;BME280;41619;42.816;23.226;2023-03-31T07:41:16;95362.56;;;16.71;46.51
55315;BME280;41619;42.816;23.226;2023-03-31T07:43:42;95365.25;;;16.81;46.50
55315;BME280;41619;42.816;23.226;2023-03-31T07:46:20;95356.84;;;16.95;46.05
55315;BME280;41619;42.816;23.226;2023-03-31T07:48:47;95358.00;;;17.39;47.68
55315;BME280;41619;42.816;23.226;2023-03-31T07:51:17;95363.28;;;19.49;45.21
55315;BME280;41619;42.816;23.226;2023-03-31T07:53:43;95351.78;;;22.31;39.83
55315;BME280;41619;42.816;23.226;2023-03-31T07:56:09;95343.88;;;24.62;36.37
55315;BME280;41619;42.816;23.226;2023-03-31T07:58:35;95346.13;;;26.54;33.16
55315;BME280;41619;42.816;23.226;2023-03-31T08:01:01;95333.88;;;27.89;31.07
55315;BME280;41619;42.816;23.226;2023-03-31T08:03:27;95335.88;;;28.57;29.28
55315;BME280;41619;42.816;23.226;2023-03-31T08:05:53;95333.66;;;28.31;28.72
55315;BME280;41619;42.816;23.226;2023-03-31T08:08:19;95329.38;;;26.69;30.03
55315;BME280;41619;42.816;23.226;2023-03-31T08:10:45;95321.69;;;25.26;31.78
55315;BME280;41619;42.816;23.226;2023-03-31T08:13:11;95320.41;;;24.29;33.09
55315;BME280;41619;42.816;23.226;2023-03-31T08:15:36;95315.09;;;23.43;33.84
55315;BME280;41619;42.816;23.226;2023-03-31T08:18:02;95318.91;;;22.64;34.93
55315;BME280;41619;42.816;23.226;2023-03-31T08:20:28;95318.88;;;22.13;35.91
55315;BME280;41619;42.816;23.226;2023-03-31T08:22:53;95312.66;;;22.22;36.66
55315;BME280;41619;42.816;23.226;2023-03-31T08:25:18;95300.00;;;23.75;34.83
55315;BME280;41619;42.816;23.226;2023-03-31T08:27:45;95307.75;;;25.72;31.35
55315;BME280;41619;42.816;23.226;2023-03-31T08:30:15;95302.38;;;26.20;30.41
55315;BME280;41619;42.816;23.226;2023-03-31T08:32:41;95304.78;;;27.68;28.60
55315;BME280;41619;42.816;23.226;2023-03-31T08:35:07;95295.34;;;27.95;27.45
55315;BME280;41619;42.816;23.226;2023-03-31T08:37:32;95291.28;;;27.58;27.37
55315;BME280;41619;42.816;23.226;2023-03-31T08:39:58;95298.81;;;28.29;26.60
55315;BME280;41619;42.816;23.226;2023-03-31T08:42:44;95307.75;;;28.27;26.35
55315;BME280;41619;42.816;23.226;2023-03-31T08:45:27;95288.63;;;28.46;25.89
55315;BME280;41619;42.816;23.226;2023-03-31T08:47:58;95288.00;;;28.42;25.50
55315;BME280;41619;42.816;23.226;2023-03-31T08:50:28;95290.06;;;28.42;25.58
55315;BME280;41619;42.816;23.226;2023-03-31T08:55:48;95268.84;;;29.46;24.50
55315;BME280;41619;42.816;23.226;2023-03-31T09:06:22;95267.47;;;31.02;22.17
55315;BME280;41619;42.816;23.226;2023-03-31T09:08:54;95261.00;;;31.33;21.86
55315;BME280;41619;42.816;23.226;2023-03-31T09:11:31;95253.28;;;31.28;21.10
55315;BME280;41619;42.816;23.226;2023-03-31T09:16:57;95252.34;;;27.65;23.19
55315;BME280;41619;42.816;23.226;2023-03-31T09:19:40;95255.88;;;28.04;23.15
55315;BME280;41619;42.816;23.226;2023-03-31T09:22:31;95250.66;;;28.42;23.20
55315;BME280;41619;42.816;23.226;2023-03-31T09:25:25;95240.13;;;28.72;22.55
55315;BME280;41619;42.816;23.226;2023-03-31T09:27:55;95251.47;;;29.12;21.75
55315;BME280;41619;42.816;23.226;2023-03-31T09:30:29;95244.25;;;29.72;21.08
55315;BME280;41619;42.816;23.226;2023-03-31T09:33:15;95243.22;;;28.74;21.55
55315;BME280;41619;42.816;23.226;2023-03-31T09:35:42;95245.00;;;27.05;22.53
55315;BME280;41619;42.816;23.226;2023-03-31T09:38:10;95246.44;;;26.25;23.09
55315;BME280;41619;42.816;23.226;2023-03-31T09:40:36;95243.91;;;25.58;23.53
55315;BME280;41619;42.816;23.226;2023-03-31T09:43:09;95226.53;;;24.68;24.13
55315;BME280;41619;42.816;23.226;2023-03-31T09:45:39;95233.97;;;23.91;25.04
55315;BME280;41619;42.816;23.226;2023-03-31T09:48:14;95235.63;;;23.22;25.63
55315;BME280;41619;42.816;23.226;2023-03-31T09:50:48;95220.19;;;22.49;25.95
55315;BME280;41619;42.816;23.226;2023-03-31T09:53:27;95221.63;;;21.77;26.75
55315;BME280;41619;42.816;23.226;2023-03-31T09:56:01;95221.75;;;21.15;27.14
55315;BME280;41619;42.816;23.226;2023-03-31T09:58:27;95219.47;;;20.81;27.46
55315;BME280;41619;42.816;23.226;2023-03-31T10:00:59;95214.22;;;20.71;28.06
55315;BME280;41619;42.816;23.226;2023-03-31T10:03:26;95212.91;;;20.59;28.21
55315;BME280;41619;42.816;23.226;2023-03-31T10:05:55;95206.13;;;20.44;28.39
55315;BME280;41619;42.816;23.226;2023-03-31T10:08:26;95205.75;;;20.25;28.34
55315;BME280;41619;42.816;23.226;2023-03-31T10:11:17;95199.91;;;19.87;28.85
55315;BME280;41619;42.816;23.226;2023-03-31T10:14:03;95199.59;;;19.46;28.89
55315;BME280;41619;42.816;23.226;2023-03-31T10:16:33;95199.06;;;19.34;29.44
55315;BME280;41619;42.816;23.226;2023-03-31T10:19:21;95197.69;;;19.62;29.40
55315;BME280;41619;42.816;23.226;2023-03-31T10:21:48;95185.16;;;19.74;29.20
55315;BME280;41619;42.816;23.226;2023-03-31T10:24:19;95190.66;;;20.26;29.08
55315;BME280;41619;42.816;23.226;2023-03-31T10:26:49;95186.50;;;20.67;28.55
55315;BME280;41619;42.816;23.226;2023-03-31T10:29:28;95187.13;;;20.42;28.61
55315;BME280;41619;42.816;23.226;2023-03-31T10:32:01;95182.13;;;20.01;29.11
55315;BME280;41619;42.816;23.226;2023-03-31T10:34:28;95175.75;;;19.68;29.46
55315;BME280;41619;42.816;23.226;2023-03-31T10:36:55;95174.50;;;19.33;29.84
55315;BME280;41619;42.816;23.226;2023-03-31T10:39:28;95170.91;;;19.16;30.17
55315;BME280;41619;42.816;23.226;2023-03-31T10:41:55;95172.94;;;19.12;30.38
55315;BME280;41619;42.816;23.226;2023-03-31T10:44:36;95159.09;;;19.68;30.18
55315;BME280;41619;42.816;23.226;2023-03-31T10:47:06;95158.44;;;20.13;29.76
55315;BME280;41619;42.816;23.226;2023-03-31T10:49:42;95164.50;;;20.40;29.55
55315;BME280;41619;42.816;23.226;2023-03-31T10:52:16;95163.22;;;20.29;29.72
55315;BME280;41619;42.816;23.226;2023-03-31T10:54:47;95157.03;;;20.05;29.59
55315;BME280;41619;42.816;23.226;2023-03-31T10:57:14;95157.22;;;19.81;30.01
55315;BME280;41619;42.816;23.226;2023-03-31T11:03:29;95161.50;;;19.30;30.72
55315;BME280;41619;42.816;23.226;2023-03-31T11:05:54;95157.09;;;18.93;31.01
55315;BME280;41619;42.816;23.226;2023-03-31T11:14:00;95150.72;;;18.29;32.18
55315;BME280;41619;42.816;23.226;2023-03-31T11:16:32;95143.72;;;18.21;32.47
55315;BME280;41619;42.816;23.226;2023-03-31T11:19:28;95142.72;;;18.11;32.47
55315;BME280;41619;42.816;23.226;2023-03-31T11:22:00;95133.44;;;17.98;32.81
55315;BME280;41619;42.816;23.226;2023-03-31T11:30:45;95129.91;;;17.98;32.98
55315;BME280;41619;42.816;23.226;2023-03-31T11:41:45;95116.09;;;18.17;33.22
55315;BME280;41619;42.816;23.226;2023-03-31T11:44:15;95124.47;;;18.14;33.00
55315;BME280;41619;42.816;23.226;2023-03-31T11:49:16;95097.34;;;18.05;33.41
55315;BME280;41619;42.816;23.226;2023-03-31T11:54:36;95097.38;;;18.25;33.85
55315;BME280;41619;42.816;23.226;2023-03-31T11:57:11;95080.34;;;18.27;33.68
55315;BME280;41619;42.816;23.226;2023-03-31T11:59:39;95074.44;;;18.25;33.45
55315;BME280;41619;42.816;23.226;2023-03-31T12:02:09;95070.75;;;18.31;33.59
55315;BME280;41619;42.816;23.226;2023-03-31T12:04:47;95070.59;;;18.38;33.41
55315;BME280;41619;42.816;23.226;2023-03-31T12:07:22;95067.13;;;18.54;33.09
55315;BME280;41619;42.816;23.226;2023-03-31T12:12:36;95057.56;;;18.98;33.22
55315;BME280;41619;42.816;23.226;2023-03-31T12:15:24;95057.19;;;19.16;33.00
55315;BME280;41619;42.816;23.226;2023-03-31T12:18:15;95054.59;;;19.25;33.01
55315;BME280;41619;42.816;23.226;2023-03-31T12:20:49;95045.31;;;19.32;32.86
55315;BME280;41619;42.816;23.226;2023-03-31T12:23:19;95041.84;;;19.28;32.43
55315;BME280;41619;42.816;23.226;2023-03-31T12:25:52;95044.00;;;19.20;32.69
55315;BME280;41619;42.816;23.226;2023-03-31T12:28:19;95041.31;;;19.17;32.92
55315;BME280;41619;42.816;23.226;2023-03-31T12:30:46;95030.47;;;19.22;32.80
55315;BME280;41619;42.816;23.226;2023-03-31T12:33:27;95031.97;;;19.43;33.01
55315;BME280;41619;42.816;23.226;2023-03-31T12:38:26;95019.94;;;19.82;32.46
55315;BME280;41619;42.816;23.226;2023-03-31T12:41:37;95009.00;;;19.91;32.13
55315;BME280;41619;42.816;23.226;2023-03-31T12:47:01;94997.31;;;20.13;31.91
55315;BME280;41619;42.816;23.226;2023-03-31T12:49:57;94991.22;;;20.18;31.83
55315;BME280;41619;42.816;23.226;2023-03-31T12:55:38;94976.94;;;20.03;31.63
55315;BME280;41619;42.816;23.226;2023-03-31T13:05:59;94969.63;;;19.48;32.25
55315;BME280;41619;42.816;23.226;2023-03-31T13:11:43;94950.19;;;19.48;32.60
55315;BME280;41619;42.816;23.226;2023-03-31T13:14:22;94942.75;;;19.61;32.37
55315;BME280;41619;42.816;23.226;2023-03-31T13:16:49;94928.34;;;19.66;32.24
55315;BME280;41619;42.816;23.226;2023-03-31T13:19:33;94920.00;;;19.66;32.18
55315;BME280;41619;42.816;23.226;2023-03-31T13:22:00;94915.66;;;19.65;32.25
55315;BME280;41619;42.816;23.226;2023-03-31T13:24:28;94910.03;;;19.69;32.41
55315;BME280;41619;42.816;23.226;2023-03-31T13:26:56;94914.00;;;19.67;32.03
55315;BME280;41619;42.816;23.226;2023-03-31T13:29:42;94902.56;;;19.65;32.07
55315;BME280;41619;42.816;23.226;2023-03-31T13:32:21;94902.78;;;19.58;31.91
55315;BME280;41619;42.816;23.226;2023-03-31T13:37:29;94894.34;;;19.46;32.41
55315;BME280;41619;42.816;23.226;2023-03-31T13:40:05;94892.00;;;19.44;32.67
55315;BME280;41619;42.816;23.226;2023-03-31T13:45:53;94878.00;;;19.35;32.29
55315;BME280;41619;42.816;23.226;2023-03-31T13:57:08;94864.22;;;18.66;33.31
55315;BME280;41619;42.816;23.226;2023-03-31T14:00:13;94866.50;;;18.52;33.58
55315;BME280;41619;42.816;23.226;2023-03-31T14:10:31;94857.81;;;18.33;34.03
55315;BME280;41619;42.816;23.226;2023-03-31T14:13:18;94853.47;;;18.32;34.18
55315;BME280;41619;42.816;23.226;2023-03-31T14:15:56;94850.78;;;18.29;34.34
55315;BME280;41619;42.816;23.226;2023-03-31T14:18:26;94845.34;;;18.25;34.19
55315;BME280;41619;42.816;23.226;2023-03-31T14:29:16;94838.75;;;17.99;34.68
55315;BME280;41619;42.816;23.226;2023-03-31T14:32:01;94829.84;;;17.92;34.83
55315;BME280;41619;42.816;23.226;2023-03-31T14:37:09;94818.06;;;17.68;34.68
55315;BME280;41619;42.816;23.226;2023-03-31T14:39:41;94815.47;;;17.57;34.84
55315;BME280;41619;42.816;23.226;2023-03-31T14:42:16;94814.53;;;17.44;35.22
55315;BME280;41619;42.816;23.226;2023-03-31T14:44:43;94813.56;;;17.34;35.41
55315;BME280;41619;42.816;23.226;2023-03-31T14:47:35;94801.06;;;17.26;35.51
55315;BME280;41619;42.816;23.226;2023-03-31T14:50:07;94796.38;;;17.23;35.56
55315;BME280;41619;42.816;23.226;2023-03-31T14:52:36;94796.44;;;17.19;35.61
55315;BME280;41619;42.816;23.226;2023-03-31T14:55:01;94797.22;;;17.20;35.85
55315;BME280;41619;42.816;23.226;2023-03-31T14:57:32;94788.59;;;17.18;35.99
55315;BME280;41619;42.816;23.226;2023-03-31T15:00:00;94791.34;;;17.18;35.99
55315;BME280;41619;42.816;23.226;2023-03-31T15:02:32;94771.63;;;17.16;36.20
55315;BME280;41619;42.816;23.226;2023-03-31T15:05:01;94782.69;;;17.16;35.89
55315;BME280;41619;42.816;23.226;2023-03-31T15:07:27;94785.47;;;17.16;36.23
55315;BME280;41619;42.816;23.226;2023-03-31T15:09:52;94785.88;;;17.14;36.28
55315;BME280;41619;42.816;23.226;2023-03-31T15:12:20;94786.31;;;17.13;36.42
55315;BME280;41619;42.816;23.226;2023-03-31T15:14:53;94788.31;;;17.12;36.37
55315;BME280;41619;42.816;23.226;2023-03-31T15:17:31;94789.50;;;17.11;36.51
55315;BME280;41619;42.816;23.226;2023-03-31T15:20:01;94783.97;;;17.11;36.47
55315;BME280;41619;42.816;23.226;2023-03-31T15:22:44;94781.59;;;17.10;36.70
55315;BME280;41619;42.816;23.226;2023-03-31T15:25:12;94780.44;;;17.11;36.51
55315;BME280;41619;42.816;23.226;2023-03-31T15:28:03;94779.69;;;17.07;36.67
55315;BME280;41619;42.816;23.226;2023-03-31T15:30:30;94771.81;;;17.05;36.74
55315;BME280;41619;42.816;23.226;2023-03-31T15:32:55;94771.81;;;17.05;36.92
55315;BME280;41619;42.816;23.226;2023-03-31T15:35:31;94766.66;;;17.07;36.65
55315;BME280;41619;42.816;23.226;2023-03-31T15:37:58;94767.00;;;17.09;36.96